createdAt,value
2019-04-19T00:02:23.865Z,9.70
2019-04-19T00:05:20.050Z,9.60
2019-04-19T00:08:21.146Z,9.60
2019-04-19T00:11:02.187Z,9.60
2019-04-19T00:13:41.037Z,9.50
2019-04-19T00:16:27.751Z,9.50
2019-04-19T00:19:31.680Z,9.50
2019-04-19T00:22:18.503Z,9.40
2019-04-19T00:24:47.882Z,9.40
2019-04-19T00:27:42.575Z,9.30
2019-04-19T00:30:34.892Z,9.20
2019-04-19T00:33:18.809Z,9.20
2019-04-19T00:35:56.085Z,9.20
2019-04-19T00:38:54.062Z,9.20
2019-04-19T00:42:02.575Z,9.10
2019-04-19T00:44:52.877Z,9.00
2019-04-19T00:47:35.405Z,8.90
2019-04-19T00:50:14.852Z,8.70
2019-04-19T00:53:07.593Z,8.60
2019-04-19T00:55:48.558Z,8.60
2019-04-19T00:58:31.146Z,8.50
2019-04-19T01:01:19.403Z,8.50
2019-04-19T01:04:01.003Z,8.50
2019-04-19T01:06:50.921Z,8.50
2019-04-19T01:09:44.217Z,8.40
2019-04-19T01:12:38.785Z,8.30
2019-04-19T01:15:19.642Z,8.20
2019-04-19T01:18:11.557Z,8.10
2019-04-19T01:20:43.738Z,8.00
2019-04-19T01:23:29.578Z,8.00
2019-04-19T01:26:16.717Z,8.00
2019-04-19T01:29:06.443Z,8.00
2019-04-19T01:31:58.290Z,8.10
2019-04-19T01:34:37.528Z,8.00
2019-04-19T01:37:26.361Z,7.90
2019-04-19T01:40:26.233Z,7.90
2019-04-19T01:43:13.626Z,7.90
2019-04-19T01:46:10.198Z,7.90
2019-04-19T01:49:00.359Z,7.90
2019-04-19T01:52:04.520Z,7.80
2019-04-19T01:54:47.984Z,7.80
2019-04-19T01:57:18.425Z,7.80
2019-04-19T02:00:05.491Z,7.80
2019-04-19T02:02:54.847Z,7.70
2019-04-19T02:05:44.001Z,7.70
2019-04-19T02:08:26.956Z,7.60
2019-04-19T02:11:44.444Z,7.50
2019-04-19T02:14:23.623Z,7.60
2019-04-19T02:17:09.788Z,7.70
2019-04-19T02:19:59.865Z,7.60
2019-04-19T02:22:41.035Z,7.60
2019-04-19T02:25:29.816Z,7.60
2019-04-19T02:28:18.217Z,7.60
2019-04-19T02:31:24.505Z,7.70
2019-04-19T02:34:23.238Z,7.70
2019-04-19T02:48:16.536Z,7.90
2019-04-19T02:51:17.531Z,7.90
2019-04-19T02:53:50.699Z,7.90
2019-04-19T02:56:59.796Z,7.90
2019-04-19T02:59:59.573Z,7.90
2019-04-19T03:05:34.598Z,7.90
2019-04-19T03:07:53.854Z,7.90
2019-04-19T03:10:54.713Z,7.90
2019-04-19T03:13:44.144Z,7.90
2019-04-19T03:16:39.674Z,7.80
2019-04-19T03:19:13.321Z,7.80
2019-04-19T03:22:01.322Z,7.80
2019-04-19T03:24:52.229Z,7.70
2019-04-19T03:27:37.168Z,7.60
2019-04-19T03:30:29.464Z,7.50
2019-04-19T03:36:15.023Z,7.40
2019-04-19T03:38:47.014Z,7.30
2019-04-19T03:42:01.334Z,7.30
2019-04-19T03:44:31.100Z,7.20
2019-04-19T03:47:22.361Z,7.10
2019-04-19T03:50:12.237Z,7.10
2019-04-19T03:52:53.931Z,7.10
2019-04-19T03:55:59.603Z,7.10
2019-04-19T03:58:16.947Z,7.10
2019-04-19T04:01:02.504Z,7.10
2019-04-19T04:03:50.775Z,7.20
2019-04-19T04:06:38.948Z,7.20
2019-04-19T04:09:40.597Z,7.30
2019-04-19T04:12:46.833Z,7.40
2019-04-19T04:15:51.714Z,7.50
2019-04-19T04:18:25.817Z,7.50
2019-04-19T04:21:12.551Z,7.50
2019-04-19T04:24:08.994Z,7.60
2019-04-19T04:26:58.165Z,7.60
2019-04-19T04:29:40.066Z,7.70
2019-04-19T04:32:40.746Z,7.70
2019-04-19T04:35:29.360Z,7.70
2019-04-19T04:38:10.371Z,7.70
2019-04-19T04:40:46.597Z,7.70
2019-04-19T04:43:44.657Z,7.80
2019-04-19T04:46:53.017Z,7.80
2019-04-19T04:50:01.909Z,7.80
2019-04-19T04:52:40.332Z,7.90
2019-04-19T04:55:30.469Z,8.00
2019-04-19T04:58:24.224Z,8.10
2019-04-19T05:01:10.477Z,8.20
2019-04-19T05:04:08.671Z,8.20
2019-04-19T05:06:57.888Z,8.30
2019-04-19T05:09:46.675Z,8.40
2019-04-19T05:12:46.467Z,8.40
2019-04-19T05:15:24.642Z,8.50
2019-04-19T05:18:12.846Z,8.60
2019-04-19T05:20:48.505Z,8.60
2019-04-19T05:23:43.514Z,8.70
2019-04-19T05:26:38.727Z,8.80
2019-04-19T05:29:11.139Z,9.00
2019-04-19T05:31:49.825Z,9.10
2019-04-19T05:34:46.519Z,9.20
2019-04-19T05:37:45.084Z,9.40
2019-04-19T05:40:35.539Z,9.50
2019-04-19T05:43:47.513Z,9.70
2019-04-19T05:46:21.677Z,10.00
2019-04-19T05:48:54.113Z,10.30
2019-04-19T05:51:51.232Z,10.50
2019-04-19T05:54:20.426Z,10.80
2019-04-19T05:57:29.295Z,11.20
2019-04-19T06:00:01.709Z,11.50
2019-04-19T06:02:53.581Z,11.80
2019-04-19T06:05:58.318Z,12.20
2019-04-19T06:08:22.092Z,12.40
2019-04-19T06:11:04.860Z,12.70
2019-04-19T06:14:12.485Z,13.00
2019-04-19T06:17:09.941Z,13.10
2019-04-19T06:20:04.703Z,13.50
2019-04-19T06:22:56.707Z,13.90
2019-04-19T06:25:46.125Z,14.20
2019-04-19T06:28:30.550Z,14.40
2019-04-19T06:31:25.606Z,14.60
2019-04-19T06:33:57.685Z,14.70
2019-04-19T06:36:29.739Z,15.10
2019-04-19T06:39:16.089Z,15.30
2019-04-19T06:42:07.006Z,15.60
2019-04-19T06:45:09.171Z,15.70
2019-04-19T06:47:46.500Z,16.10
2019-04-19T06:50:30.000Z,16.20
2019-04-19T06:53:12.145Z,16.70
2019-04-19T06:56:07.873Z,17.40
2019-04-19T06:58:54.418Z,17.70
2019-04-19T07:01:40.222Z,18.10
2019-04-19T07:04:21.045Z,18.60
2019-04-19T07:07:28.416Z,19.00
2019-04-19T07:10:24.905Z,19.40
2019-04-19T07:13:02.967Z,19.50
2019-04-19T07:15:57.582Z,19.60
2019-04-19T07:18:28.989Z,20.10
2019-04-19T07:21:22.031Z,19.90
2019-04-19T07:24:16.293Z,20.40
2019-04-19T07:26:52.501Z,20.60
2019-04-19T07:29:23.796Z,21.20
2019-04-19T07:32:10.197Z,21.10
2019-04-19T07:35:10.231Z,21.30
2019-04-19T07:38:04.485Z,21.00
2019-04-19T07:40:48.751Z,21.30
2019-04-19T07:43:48.354Z,22.00
2019-04-19T07:46:45.455Z,22.20
2019-04-19T07:49:13.956Z,22.70
2019-04-19T07:52:07.119Z,23.10
2019-04-19T07:54:53.696Z,23.70
2019-04-19T07:58:24.820Z,24.20
2019-04-19T08:00:56.403Z,24.30
2019-04-19T08:03:47.861Z,24.70
2019-04-19T08:06:21.150Z,25.00
2019-04-19T08:12:12.678Z,25.10
2019-04-19T08:15:02.402Z,25.70
2019-04-19T08:28:24.459Z,27.30
2019-04-19T08:31:02.486Z,27.80
2019-04-19T08:33:47.017Z,28.20
2019-04-19T08:36:42.277Z,28.30
2019-04-19T08:39:38.613Z,27.80
2019-04-19T08:42:24.395Z,27.30
2019-04-19T08:45:01.806Z,27.70
2019-04-19T08:48:11.041Z,28.20
2019-04-19T08:50:56.310Z,28.40
2019-04-19T08:53:54.339Z,29.10
2019-04-19T08:56:40.323Z,29.50
2019-04-19T08:59:39.674Z,29.70
2019-04-19T09:02:21.129Z,30.10
2019-04-19T09:05:10.544Z,29.00
2019-04-19T09:08:13.770Z,29.70
2019-04-19T09:10:47.078Z,30.70
2019-04-19T09:13:33.829Z,31.50
2019-04-19T09:16:23.155Z,31.60
2019-04-19T09:19:14.950Z,31.70
2019-04-19T09:21:52.031Z,31.80
2019-04-19T09:24:37.009Z,31.40
2019-04-19T09:27:38.589Z,31.10
2019-04-19T09:30:22.034Z,31.40
2019-04-19T09:32:50.435Z,32.50
2019-04-19T09:35:48.686Z,32.50
2019-04-19T09:38:42.476Z,32.40
2019-04-19T09:41:22.718Z,31.90
2019-04-19T09:44:09.170Z,31.50
2019-04-19T09:46:46.688Z,31.10
2019-04-19T09:49:50.335Z,32.30
2019-04-19T09:52:44.665Z,32.70
2019-04-19T09:55:30.155Z,32.70
2019-04-19T09:58:15.560Z,33.20
2019-04-19T10:00:43.056Z,33.70
2019-04-19T10:03:36.884Z,34.00
2019-04-19T10:06:17.143Z,34.70
2019-04-19T10:09:12.683Z,34.20
2019-04-19T10:11:53.017Z,32.50
2019-04-19T10:14:39.571Z,31.30
2019-04-19T10:17:25.122Z,30.70
2019-04-19T10:20:10.951Z,30.80
2019-04-19T10:22:58.443Z,30.60
2019-04-19T10:25:51.103Z,31.10
2019-04-19T10:28:32.207Z,32.20
2019-04-19T10:31:21.828Z,31.50
2019-04-19T10:34:07.807Z,31.60
2019-04-19T10:36:55.574Z,30.80
2019-04-19T10:39:41.645Z,31.80
2019-04-19T10:42:27.335Z,32.70
2019-04-19T10:45:14.027Z,33.00
2019-04-19T10:47:59.901Z,32.30
2019-04-19T10:51:04.731Z,32.10
2019-04-19T10:53:50.429Z,32.00
2019-04-19T10:56:48.446Z,32.40
2019-04-19T10:59:34.432Z,32.60
2019-04-19T11:02:24.089Z,32.20
2019-04-19T11:05:09.324Z,32.40
2019-04-19T11:07:55.834Z,30.80
2019-04-19T11:10:41.414Z,31.10
2019-04-19T11:13:29.026Z,31.00
2019-04-19T11:16:15.285Z,30.50
2019-04-19T11:19:11.114Z,30.90
2019-04-19T11:21:47.744Z,31.00
2019-04-19T11:24:33.923Z,30.60
2019-04-19T11:27:19.367Z,30.70
2019-04-19T11:30:10.946Z,31.40
2019-04-19T11:32:56.923Z,31.20
2019-04-19T11:35:47.635Z,31.20
2019-04-19T11:38:33.428Z,32.00
2019-04-19T11:41:19.227Z,32.80
2019-04-19T11:44:15.039Z,33.10
2019-04-19T11:46:52.063Z,32.90
2019-04-19T11:49:40.897Z,33.20
2019-04-19T11:52:36.183Z,33.80
2019-04-19T11:55:22.280Z,33.50
2019-04-19T11:58:08.539Z,32.80
2019-04-19T12:01:07.832Z,32.80
2019-04-19T12:03:54.107Z,33.60
2019-04-19T12:06:40.636Z,32.80
2019-04-19T12:09:26.805Z,32.90
2019-04-19T12:12:12.885Z,32.80
2019-04-19T12:14:58.236Z,32.70
2019-04-19T12:17:44.104Z,32.20
2019-04-19T12:20:29.552Z,32.70
2019-04-19T12:23:15.854Z,32.70
2019-04-19T12:26:01.785Z,32.50
2019-04-19T12:28:47.931Z,32.90
2019-04-19T12:31:33.703Z,32.70
2019-04-19T12:34:18.846Z,32.40
2019-04-19T12:37:04.831Z,32.90
2019-04-19T12:39:50.828Z,32.50
2019-04-19T12:42:36.188Z,30.50
2019-04-19T12:45:22.010Z,29.50
2019-04-19T12:48:07.794Z,29.60
2019-04-19T12:50:53.617Z,30.30
2019-04-19T12:53:39.287Z,30.90
2019-04-19T12:56:26.142Z,31.20
2019-04-19T12:59:13.779Z,29.90
2019-04-19T13:02:15.990Z,30.10
2019-04-19T13:05:06.694Z,31.30
2019-04-19T13:07:53.480Z,31.60
2019-04-19T13:10:38.755Z,31.80
2019-04-19T13:13:24.226Z,30.70
2019-04-19T13:16:10.257Z,29.00
2019-04-19T13:18:56.310Z,28.60
2019-04-19T13:21:42.660Z,29.80
2019-04-19T13:24:28.656Z,30.10
2019-04-19T13:27:14.858Z,29.70
2019-04-19T13:30:10.607Z,28.50
2019-04-19T13:32:47.689Z,28.50
2019-04-19T13:35:35.115Z,28.80
2019-04-19T13:38:28.125Z,29.10
2019-04-19T13:41:22.965Z,28.70
2019-04-19T13:44:09.106Z,28.70
2019-04-19T13:46:54.998Z,28.10
2019-04-19T13:49:40.320Z,28.10
2019-04-19T13:52:26.386Z,28.80
2019-04-19T13:55:12.616Z,30.10
2019-04-19T13:57:57.793Z,29.70
2019-04-19T14:00:46.837Z,28.50
2019-04-19T14:03:32.122Z,27.80
2019-04-19T14:06:18.182Z,27.00
2019-04-19T14:09:05.356Z,26.90
2019-04-19T14:11:51.183Z,26.70
2019-04-19T14:14:37.074Z,27.20
2019-04-19T14:17:22.061Z,27.50
2019-04-19T14:20:07.379Z,27.80
2019-04-19T14:22:52.878Z,26.80
2019-04-19T14:25:39.115Z,26.20
2019-04-19T14:28:25.295Z,26.40
2019-04-19T14:31:10.750Z,27.00
2019-04-19T14:33:57.128Z,27.30
2019-04-19T14:36:42.462Z,27.20
2019-04-19T14:39:28.836Z,27.10
2019-04-19T14:42:14.381Z,26.60
2019-04-19T14:45:00.162Z,26.50
2019-04-19T14:47:46.681Z,26.90
2019-04-19T14:50:43.548Z,27.90
2019-04-19T14:53:20.469Z,28.30
2019-04-19T14:56:06.966Z,28.80
2019-04-19T14:58:52.546Z,28.60
2019-04-19T15:01:57.162Z,27.60
2019-04-19T15:04:47.235Z,26.90
2019-04-19T15:07:32.487Z,27.10
2019-04-19T15:10:17.797Z,27.30
2019-04-19T15:13:03.004Z,27.90
2019-04-19T15:15:48.421Z,28.10
2019-04-19T15:18:33.314Z,27.90
2019-04-19T15:21:20.636Z,27.40
2019-04-19T15:24:06.783Z,27.40
2019-04-19T15:26:52.449Z,27.40
2019-04-19T15:29:38.870Z,27.20
2019-04-19T15:32:24.443Z,27.20
2019-04-19T15:35:10.237Z,27.50
2019-04-19T15:37:56.134Z,27.40
2019-04-19T15:40:42.081Z,26.40
2019-04-19T15:43:27.725Z,26.30
2019-04-19T15:46:13.498Z,26.30
2019-04-19T15:48:59.917Z,26.00
2019-04-19T15:51:46.095Z,25.90
2019-04-19T15:54:32.310Z,25.60
2019-04-19T15:57:18.417Z,25.40
2019-04-19T16:00:04.376Z,25.30
2019-04-19T16:03:00.415Z,25.00
2019-04-19T16:05:50.270Z,24.70
2019-04-19T16:08:55.119Z,24.80
2019-04-19T16:11:49.044Z,24.10
2019-04-19T16:14:35.699Z,23.90
2019-04-19T16:17:21.135Z,24.30
2019-04-19T16:20:07.263Z,24.20
2019-04-19T16:22:52.274Z,24.30
2019-04-19T16:25:38.075Z,24.20
2019-04-19T16:28:23.488Z,24.20
2019-04-19T16:31:09.026Z,24.20
2019-04-19T16:33:54.375Z,24.40
2019-04-19T16:36:39.548Z,24.30
2019-04-19T16:39:27.640Z,24.10
2019-04-19T16:42:13.179Z,24.10
2019-04-19T16:44:59.673Z,23.70
2019-04-19T16:47:45.123Z,23.20
2019-04-19T16:50:30.697Z,22.60
2019-04-19T16:53:15.950Z,22.10
2019-04-19T16:56:01.745Z,21.50
2019-04-19T16:58:47.107Z,21.00
2019-04-19T17:01:33.007Z,20.50
2019-04-19T17:04:18.085Z,20.10
2019-04-19T17:07:04.682Z,19.80
2019-04-19T17:09:50.067Z,19.60
2019-04-19T17:12:35.396Z,19.40
2019-04-19T17:15:44.215Z,19.20
2019-04-19T17:18:59.059Z,19.00
2019-04-19T17:21:53.717Z,18.80
2019-04-19T17:24:31.302Z,18.60
2019-04-19T17:27:21.724Z,18.50
2019-04-19T17:30:06.181Z,18.30
2019-04-19T17:32:52.317Z,18.20
2019-04-19T17:35:38.380Z,18.00
2019-04-19T17:38:32.208Z,17.80
2019-04-19T17:41:12.412Z,17.70
2019-04-19T17:43:57.638Z,17.60
2019-04-19T17:46:42.882Z,17.40
2019-04-19T17:49:28.747Z,17.30
2019-04-19T17:52:24.596Z,17.10
2019-04-19T17:55:13.407Z,16.90
2019-04-19T17:57:49.362Z,16.70
2019-04-19T18:00:34.627Z,16.50
2019-04-19T18:03:20.450Z,16.40
2019-04-19T18:06:06.429Z,16.20
2019-04-19T18:08:52.263Z,16.00
2019-04-19T18:11:38.401Z,15.90
2019-04-19T18:14:25.508Z,15.70
2019-04-19T18:17:10.622Z,15.60
2019-04-19T18:19:59.341Z,15.40
2019-04-19T18:22:54.462Z,15.30
2019-04-19T18:25:33.087Z,15.10
2019-04-19T18:28:18.358Z,15.00
2019-04-19T18:31:07.811Z,14.80
2019-04-19T18:34:01.663Z,14.70
2019-04-19T18:36:46.040Z,14.60
2019-04-19T18:39:26.513Z,14.60
2019-04-19T18:42:11.302Z,14.60
2019-04-19T18:45:00.818Z,14.50
2019-04-19T18:47:45.230Z,14.40
2019-04-19T18:50:32.937Z,14.30
2019-04-19T18:53:28.457Z,14.20
2019-04-19T18:56:13.279Z,14.10
2019-04-19T18:58:52.138Z,14.00
2019-04-19T19:01:39.684Z,13.90
2019-04-19T19:04:26.357Z,13.80
2019-04-19T19:07:16.059Z,13.80
2019-04-19T19:10:01.851Z,13.70
2019-04-19T19:12:47.798Z,13.70
2019-04-19T19:15:41.710Z,13.70
2019-04-19T19:18:19.353Z,13.60
2019-04-19T19:21:05.553Z,13.50
2019-04-19T19:24:20.742Z,13.40
2019-04-19T19:26:53.443Z,13.30
2019-04-19T19:29:25.928Z,13.30
2019-04-19T19:32:14.300Z,13.20
2019-04-19T19:35:04.228Z,13.20
2019-04-19T19:37:46.188Z,13.20
2019-04-19T19:40:42.149Z,13.20
2019-04-19T19:43:36.839Z,13.20
2019-04-19T19:46:31.748Z,13.20
2019-04-19T19:49:30.737Z,13.20
2019-04-19T19:51:51.877Z,13.30
2019-04-19T19:54:54.344Z,13.20
2019-04-19T19:57:30.338Z,13.10
2019-04-19T20:00:15.811Z,13.00
2019-04-19T20:03:04.027Z,13.00
2019-04-19T20:05:41.872Z,12.90
2019-04-19T20:08:35.542Z,12.90
2019-04-19T20:11:20.388Z,12.90
2019-04-19T20:14:04.132Z,12.90
2019-04-19T20:16:49.440Z,12.90
2019-04-19T20:19:35.074Z,12.90
2019-04-19T20:22:21.187Z,12.80
2019-04-19T20:25:22.142Z,12.80
2019-04-19T20:27:57.948Z,12.80
2019-04-19T20:30:46.352Z,12.80
2019-04-19T20:33:34.444Z,12.80
2019-04-19T20:36:16.842Z,12.70
2019-04-19T20:39:04.296Z,12.60
2019-04-19T20:41:52.398Z,12.60
2019-04-19T20:44:52.491Z,12.70
2019-04-19T20:47:29.060Z,12.60
2019-04-19T20:50:19.848Z,12.70
2019-04-19T20:53:14.673Z,12.60
2019-04-19T20:56:33.558Z,12.60
2019-04-19T20:58:46.419Z,12.60
2019-04-19T21:01:27.036Z,12.60
2019-04-19T21:04:15.885Z,12.60
2019-04-19T21:07:07.688Z,12.60
2019-04-19T21:09:47.500Z,12.60
2019-04-19T21:12:35.022Z,12.50
2019-04-19T21:15:27.900Z,12.60
2019-04-19T21:18:10.587Z,12.60
2019-04-19T21:21:01.611Z,12.50
2019-04-19T21:23:45.314Z,12.50
2019-04-19T21:26:31.778Z,12.40
2019-04-19T21:29:20.952Z,12.50
2019-04-19T21:32:04.485Z,12.40
2019-04-19T21:34:50.153Z,12.40
2019-04-19T21:37:39.660Z,12.30
2019-04-19T21:40:29.330Z,12.20
2019-04-19T21:43:11.120Z,12.20
2019-04-19T21:45:57.271Z,12.20
2019-04-19T21:48:44.502Z,12.10
2019-04-19T21:51:34.379Z,12.10
2019-04-19T21:54:16.739Z,12.10
2019-04-19T21:57:02.673Z,12.10
2019-04-19T21:59:48.245Z,12.10
2019-04-19T22:02:39.960Z,12.10
2019-04-19T22:05:27.450Z,12.20
2019-04-19T22:08:08.069Z,12.20
2019-04-19T22:10:54.171Z,12.10
2019-04-19T22:13:43.457Z,12.00
2019-04-19T22:16:33.304Z,12.00
2019-04-19T22:19:19.274Z,11.90
2019-04-19T22:22:01.281Z,11.80
2019-04-19T22:24:47.726Z,11.80
2019-04-19T22:27:34.170Z,11.90
2019-04-19T22:30:19.778Z,12.10
2019-04-19T22:33:08.005Z,12.20
2019-04-19T22:35:56.194Z,12.20
2019-04-19T22:38:42.479Z,12.20
2019-04-19T22:41:27.095Z,12.20
2019-04-19T22:44:12.782Z,12.20
2019-04-19T22:46:58.539Z,12.30
2019-04-19T22:49:45.762Z,12.20
2019-04-19T22:52:32.517Z,12.10
2019-04-19T22:55:19.352Z,12.10
2019-04-19T22:58:05.915Z,11.90
2019-04-19T23:00:52.681Z,11.80
2019-04-19T23:03:41.862Z,11.70
2019-04-19T23:06:28.109Z,11.50
2019-04-19T23:09:17.853Z,11.40
2019-04-19T23:12:00.998Z,11.30
2019-04-19T23:14:50.526Z,11.20
2019-04-19T23:17:40.274Z,11.10
2019-04-19T23:20:27.529Z,11.00
2019-04-19T23:23:17.362Z,10.90
2019-04-19T23:26:13.627Z,10.80
2019-04-19T23:28:46.622Z,10.70
2019-04-19T23:31:40.085Z,10.70
2019-04-19T23:34:21.222Z,10.70
2019-04-19T23:37:10.245Z,10.70
2019-04-19T23:39:54.946Z,10.60
2019-04-19T23:42:42.372Z,10.50
2019-04-19T23:45:33.022Z,10.40
2019-04-19T23:48:20.199Z,10.30
2019-04-19T23:51:02.326Z,10.20
2019-04-19T23:53:48.150Z,10.10
2019-04-19T23:56:41.470Z,10.00
2019-04-19T23:59:22.725Z,10.00
